sensor_id;sensor_type;location;lat;lon;timestamp;temperature;humidity
25046;DHT22;13044;49.304;12.840;2023-06-22T00:01:20;19.30;99.90
25046;DHT22;13044;49.304;12.840;2023-06-22T00:03:49;19.30;99.90
25046;DHT22;13044;49.304;12.840;2023-06-22T00:06:16;19.20;99.90
25046;DHT22;13044;49.304;12.840;2023-06-22T00:08:43;19.10;99.90
25046;DHT22;13044;49.304;12.840;2023-06-22T00:11:10;19.10;99.90
25046;DHT22;13044;49.304;12.840;2023-06-22T00:13:38;19.10;99.90
25046;DHT22;13044;49.304;12.840;2023-06-22T00:16:05;19.00;99.90
25046;DHT22;13044;49.304;12.840;2023-06-22T00:18:32;19.00;99.90
25046;DHT22;13044;49.304;12.840;2023-06-22T00:21:00;19.00;99.90
25046;DHT22;13044;49.304;12.840;2023-06-22T00:23:27;19.00;99.90
25046;DHT22;13044;49.304;12.840;2023-06-22T00:25:54;18.90;99.90
25046;DHT22;13044;49.304;12.840;2023-06-22T00:28:21;18.90;99.90
25046;DHT22;13044;49.304;12.840;2023-06-22T00:30:49;18.90;99.90
25046;DHT22;13044;49.304;12.840;2023-06-22T00:33:16;18.90;99.90
25046;DHT22;13044;49.304;12.840;2023-06-22T00:35:43;18.90;99.90
25046;DHT22;13044;49.304;12.840;2023-06-22T00:38:11;18.90;99.90
25046;DHT22;13044;49.304;12.840;2023-06-22T00:40:38;18.90;99.90
25046;DHT22;13044;49.304;12.840;2023-06-22T00:43:05;18.90;99.90
25046;DHT22;13044;49.304;12.840;2023-06-22T00:45:32;18.90;99.90
25046;DHT22;13044;49.304;12.840;2023-06-22T00:47:59;18.90;99.90
25046;DHT22;13044;49.304;12.840;2023-06-22T00:50:29;18.90;99.90
25046;DHT22;13044;49.304;12.840;2023-06-22T00:53:09;18.90;99.90
25046;DHT22;13044;49.304;12.840;2023-06-22T00:55:39;18.70;99.90
25046;DHT22;13044;49.304;12.840;2023-06-22T00:58:09;18.70;99.90
25046;DHT22;13044;49.304;12.840;2023-06-22T01:00:39;18.70;99.90
25046;DHT22;13044;49.304;12.840;2023-06-22T01:03:07;18.60;99.90
25046;DHT22;13044;49.304;12.840;2023-06-22T01:05:38;18.50;99.90
25046;DHT22;13044;49.304;12.840;2023-06-22T01:08:36;18.30;99.90
25046;DHT22;13044;49.304;12.840;2023-06-22T01:11:20;18.30;99.90
25046;DHT22;13044;49.304;12.840;2023-06-22T01:14:32;18.30;99.90
25046;DHT22;13044;49.304;12.840;2023-06-22T01:17:05;18.30;99.90
25046;DHT22;13044;49.304;12.840;2023-06-22T01:19:49;18.40;99.90
25046;DHT22;13044;49.304;12.840;2023-06-22T01:22:25;18.50;99.90
25046;DHT22;13044;49.304;12.840;2023-06-22T01:25:24;18.50;99.90
25046;DHT22;13044;49.304;12.840;2023-06-22T01:28:04;18.50;99.90
25046;DHT22;13044;49.304;12.840;2023-06-22T01:30:43;18.50;99.90
25046;DHT22;13044;49.304;12.840;2023-06-22T01:33:13;18.40;99.90
25046;DHT22;13044;49.304;12.840;2023-06-22T01:35:41;18.30;99.90
25046;DHT22;13044;49.304;12.840;2023-06-22T01:38:09;18.40;99.90
25046;DHT22;13044;49.304;12.840;2023-06-22T01:40:36;18.40;99.90
25046;DHT22;13044;49.304;12.840;2023-06-22T01:43:04;18.50;99.90
25046;DHT22;13044;49.304;12.840;2023-06-22T01:45:31;18.50;99.90
25046;DHT22;13044;49.304;12.840;2023-06-22T01:47:58;18.50;99.90
25046;DHT22;13044;49.304;12.840;2023-06-22T01:50:26;18.50;99.90
25046;DHT22;13044;49.304;12.840;2023-06-22T01:52:54;18.50;99.90
25046;DHT22;13044;49.304;12.840;2023-06-22T01:55:20;18.50;99.90
25046;DHT22;13044;49.304;12.840;2023-06-22T01:57:47;18.50;99.90
25046;DHT22;13044;49.304;12.840;2023-06-22T02:00:19;18.60;99.90
25046;DHT22;13044;49.304;12.840;2023-06-22T02:05:50;18.40;99.90
25046;DHT22;13044;49.304;12.840;2023-06-22T02:08:25;18.30;99.90
25046;DHT22;13044;49.304;12.840;2023-06-22T02:10:55;18.40;99.90
25046;DHT22;13044;49.304;12.840;2023-06-22T02:13:24;18.40;99.90
25046;DHT22;13044;49.304;12.840;2023-06-22T02:15:51;18.40;99.90
25046;DHT22;13044;49.304;12.840;2023-06-22T02:18:18;18.30;99.90
25046;DHT22;13044;49.304;12.840;2023-06-22T02:20:47;18.30;99.90
25046;DHT22;13044;49.304;12.840;2023-06-22T02:23:14;18.30;99.90
25046;DHT22;13044;49.304;12.840;2023-06-22T02:25:40;18.30;99.90
25046;DHT22;13044;49.304;12.840;2023-06-22T02:28:10;18.30;99.90
25046;DHT22;13044;49.304;12.840;2023-06-22T02:30:37;18.30;99.90
25046;DHT22;13044;49.304;12.840;2023-06-22T02:33:04;18.00;99.90
25046;DHT22;13044;49.304;12.840;2023-06-22T02:35:31;18.00;99.90
25046;DHT22;13044;49.304;12.840;2023-06-22T02:37:59;18.00;99.90
25046;DHT22;13044;49.304;12.840;2023-06-22T02:40:28;18.00;99.90
25046;DHT22;13044;49.304;12.840;2023-06-22T02:42:58;18.00;99.90
25046;DHT22;13044;49.304;12.840;2023-06-22T02:45:29;18.00;99.90
25046;DHT22;13044;49.304;12.840;2023-06-22T02:47:56;18.00;99.90
25046;DHT22;13044;49.304;12.840;2023-06-22T02:50:23;17.80;99.90
25046;DHT22;13044;49.304;12.840;2023-06-22T02:52:50;17.90;99.90
25046;DHT22;13044;49.304;12.840;2023-06-22T02:55:17;17.90;99.90
25046;DHT22;13044;49.304;12.840;2023-06-22T02:57:44;17.90;99.90
25046;DHT22;13044;49.304;12.840;2023-06-22T03:00:13;17.80;99.90
25046;DHT22;13044;49.304;12.840;2023-06-22T03:02:45;17.80;99.90
25046;DHT22;13044;49.304;12.840;2023-06-22T03:05:14;17.80;99.90
25046;DHT22;13044;49.304;12.840;2023-06-22T03:07:41;17.90;99.90
25046;DHT22;13044;49.304;12.840;2023-06-22T03:10:09;17.90;99.90
25046;DHT22;13044;49.304;12.840;2023-06-22T03:12:38;17.90;99.90
25046;DHT22;13044;49.304;12.840;2023-06-22T03:15:09;17.90;99.90
25046;DHT22;13044;49.304;12.840;2023-06-22T03:17:39;18.00;99.90
25046;DHT22;13044;49.304;12.840;2023-06-22T03:20:07;17.90;99.90
25046;DHT22;13044;49.304;12.840;2023-06-22T03:22:36;17.90;99.90
25046;DHT22;13044;49.304;12.840;2023-06-22T03:25:04;18.00;99.90
25046;DHT22;13044;49.304;12.840;2023-06-22T03:27:37;18.10;99.90
25046;DHT22;13044;49.304;12.840;2023-06-22T03:30:05;18.10;99.90
25046;DHT22;13044;49.304;12.840;2023-06-22T03:32:34;18.10;99.90
25046;DHT22;13044;49.304;12.840;2023-06-22T03:35:01;18.10;99.90
25046;DHT22;13044;49.304;12.840;2023-06-22T03:37:29;18.20;99.90
25046;DHT22;13044;49.304;12.840;2023-06-22T03:39:56;18.30;99.90
25046;DHT22;13044;49.304;12.840;2023-06-22T03:42:23;18.20;99.90
25046;DHT22;13044;49.304;12.840;2023-06-22T03:44:50;18.10;99.90
25046;DHT22;13044;49.304;12.840;2023-06-22T03:47:17;18.10;99.90
25046;DHT22;13044;49.304;12.840;2023-06-22T03:49:44;18.20;99.90
25046;DHT22;13044;49.304;12.840;2023-06-22T03:52:11;18.20;99.90
25046;DHT22;13044;49.304;12.840;2023-06-22T03:54:38;18.20;99.90
25046;DHT22;13044;49.304;12.840;2023-06-22T03:57:05;18.20;99.90
25046;DHT22;13044;49.304;12.840;2023-06-22T03:59:32;18.30;99.90
25046;DHT22;13044;49.304;12.840;2023-06-22T04:01:59;18.30;99.90
25046;DHT22;13044;49.304;12.840;2023-06-22T04:04:26;18.40;99.90
25046;DHT22;13044;49.304;12.840;2023-06-22T04:06:53;18.50;99.90
25046;DHT22;13044;49.304;12.840;2023-06-22T04:09:20;18.50;99.90
25046;DHT22;13044;49.304;12.840;2023-06-22T04:11:48;18.60;99.90
25046;DHT22;13044;49.304;12.840;2023-06-22T04:14:15;18.60;99.90
25046;DHT22;13044;49.304;12.840;2023-06-22T04:16:42;18.70;99.90
25046;DHT22;13044;49.304;12.840;2023-06-22T04:19:09;18.70;99.90
25046;DHT22;13044;49.304;12.840;2023-06-22T04:21:43;18.80;99.90
25046;DHT22;13044;49.304;12.840;2023-06-22T04:24:15;18.70;99.90
25046;DHT22;13044;49.304;12.840;2023-06-22T04:26:42;18.70;99.90
25046;DHT22;13044;49.304;12.840;2023-06-22T04:29:12;18.70;99.90
25046;DHT22;13044;49.304;12.840;2023-06-22T04:31:39;18.70;99.90
25046;DHT22;13044;49.304;12.840;2023-06-22T04:34:07;18.80;99.90
25046;DHT22;13044;49.304;12.840;2023-06-22T04:36:35;18.80;99.90
25046;DHT22;13044;49.304;12.840;2023-06-22T04:39:08;18.80;99.90
25046;DHT22;13044;49.304;12.840;2023-06-22T04:41:40;19.00;99.90
25046;DHT22;13044;49.304;12.840;2023-06-22T04:44:15;19.10;99.90
25046;DHT22;13044;49.304;12.840;2023-06-22T04:47:00;19.20;99.90
25046;DHT22;13044;49.304;12.840;2023-06-22T04:49:30;19.20;99.90
25046;DHT22;13044;49.304;12.840;2023-06-22T04:52:10;19.30;99.90
25046;DHT22;13044;49.304;12.840;2023-06-22T04:54:40;19.70;99.90
25046;DHT22;13044;49.304;12.840;2023-06-22T04:57:14;21.10;99.90
25046;DHT22;13044;49.304;12.840;2023-06-22T04:59:41;22.50;99.90
25046;DHT22;13044;49.304;12.840;2023-06-22T05:02:09;23.10;99.90
25046;DHT22;13044;49.304;12.840;2023-06-22T05:04:36;23.60;99.90
25046;DHT22;13044;49.304;12.840;2023-06-22T05:07:06;24.40;99.90
25046;DHT22;13044;49.304;12.840;2023-06-22T05:09:33;25.50;99.90
25046;DHT22;13044;49.304;12.840;2023-06-22T05:12:00;25.50;99.90
25046;DHT22;13044;49.304;12.840;2023-06-22T05:14:29;25.80;99.90
25046;DHT22;13044;49.304;12.840;2023-06-22T05:16:56;26.10;99.90
25046;DHT22;13044;49.304;12.840;2023-06-22T05:19:30;26.70;99.90
25046;DHT22;13044;49.304;12.840;2023-06-22T05:22:00;26.90;99.90
25046;DHT22;13044;49.304;12.840;2023-06-22T05:24:27;27.00;99.90
25046;DHT22;13044;49.304;12.840;2023-06-22T05:26:54;27.40;99.90
25046;DHT22;13044;49.304;12.840;2023-06-22T05:29:21;27.50;99.90
25046;DHT22;13044;49.304;12.840;2023-06-22T05:31:49;27.00;99.90
25046;DHT22;13044;49.304;12.840;2023-06-22T05:34:16;26.10;99.90
25046;DHT22;13044;49.304;12.840;2023-06-22T05:36:43;25.30;99.90
25046;DHT22;13044;49.304;12.840;2023-06-22T05:39:14;24.70;99.90
25046;DHT22;13044;49.304;12.840;2023-06-22T05:41:42;24.20;99.90
25046;DHT22;13044;49.304;12.840;2023-06-22T05:44:09;23.90;99.90
25046;DHT22;13044;49.304;12.840;2023-06-22T05:46:37;23.60;99.90
25046;DHT22;13044;49.304;12.840;2023-06-22T05:49:05;23.40;99.90
25046;DHT22;13044;49.304;12.840;2023-06-22T05:51:32;22.90;99.90
25046;DHT22;13044;49.304;12.840;2023-06-22T05:53:59;22.80;99.90
25046;DHT22;13044;49.304;12.840;2023-06-22T05:56:26;22.70;99.90
25046;DHT22;13044;49.304;12.840;2023-06-22T05:58:53;22.60;99.90
25046;DHT22;13044;49.304;12.840;2023-06-22T06:01:20;22.50;99.90
25046;DHT22;13044;49.304;12.840;2023-06-22T06:03:47;22.50;99.90
25046;DHT22;13044;49.304;12.840;2023-06-22T06:06:15;22.50;99.90
25046;DHT22;13044;49.304;12.840;2023-06-22T06:08:42;22.40;99.90
25046;DHT22;13044;49.304;12.840;2023-06-22T06:11:09;22.30;99.90
25046;DHT22;13044;49.304;12.840;2023-06-22T06:13:36;22.40;99.90
25046;DHT22;13044;49.304;12.840;2023-06-22T06:16:03;22.50;99.90
25046;DHT22;13044;49.304;12.840;2023-06-22T06:18:30;22.50;99.90
25046;DHT22;13044;49.304;12.840;2023-06-22T06:20:57;22.50;99.90
25046;DHT22;13044;49.304;12.840;2023-06-22T06:23:24;22.50;99.90
25046;DHT22;13044;49.304;12.840;2023-06-22T06:25:50;22.50;99.90
25046;DHT22;13044;49.304;12.840;2023-06-22T06:28:17;22.60;99.90
25046;DHT22;13044;49.304;12.840;2023-06-22T06:30:44;22.70;99.90
25046;DHT22;13044;49.304;12.840;2023-06-22T06:33:13;22.70;99.90
25046;DHT22;13044;49.304;12.840;2023-06-22T06:35:40;22.70;99.90
25046;DHT22;13044;49.304;12.840;2023-06-22T06:38:07;22.70;99.90
25046;DHT22;13044;49.304;12.840;2023-06-22T06:40:34;22.70;99.90
25046;DHT22;13044;49.304;12.840;2023-06-22T06:43:01;22.70;99.90
25046;DHT22;13044;49.304;12.840;2023-06-22T06:45:28;22.80;99.90
25046;DHT22;13044;49.304;12.840;2023-06-22T06:47:57;22.70;99.90
25046;DHT22;13044;49.304;12.840;2023-06-22T06:50:24;22.80;99.90
25046;DHT22;13044;49.304;12.840;2023-06-22T06:52:50;22.80;99.90
25046;DHT22;13044;49.304;12.840;2023-06-22T06:55:18;22.80;99.90
25046;DHT22;13044;49.304;12.840;2023-06-22T06:57:46;22.80;99.90
25046;DHT22;13044;49.304;12.840;2023-06-22T07:00:15;22.90;99.90
25046;DHT22;13044;49.304;12.840;2023-06-22T07:02:44;22.90;99.90
25046;DHT22;13044;49.304;12.840;2023-06-22T07:05:12;23.00;99.90
25046;DHT22;13044;49.304;12.840;2023-06-22T07:07:39;23.10;99.90
25046;DHT22;13044;49.304;12.840;2023-06-22T07:10:08;23.10;99.90
25046;DHT22;13044;49.304;12.840;2023-06-22T07:12:36;23.10;99.90
25046;DHT22;13044;49.304;12.840;2023-06-22T07:15:08;23.20;99.90
25046;DHT22;13044;49.304;12.840;2023-06-22T07:17:36;23.40;99.90
25046;DHT22;13044;49.304;12.840;2023-06-22T07:20:04;23.50;99.90
25046;DHT22;13044;49.304;12.840;2023-06-22T07:22:43;23.60;99.90
25046;DHT22;13044;49.304;12.840;2023-06-22T07:25:11;23.60;99.90
25046;DHT22;13044;49.304;12.840;2023-06-22T07:27:46;23.70;99.90
25046;DHT22;13044;49.304;12.840;2023-06-22T07:30:23;23.70;99.90
25046;DHT22;13044;49.304;12.840;2023-06-22T07:32:50;23.90;99.90
25046;DHT22;13044;49.304;12.840;2023-06-22T07:35:17;24.00;99.90
25046;DHT22;13044;49.304;12.840;2023-06-22T07:37:44;24.10;99.90
25046;DHT22;13044;49.304;12.840;2023-06-22T07:40:11;24.30;99.90
25046;DHT22;13044;49.304;12.840;2023-06-22T07:42:39;24.30;99.90
25046;DHT22;13044;49.304;12.840;2023-06-22T07:45:06;24.40;99.90
25046;DHT22;13044;49.304;12.840;2023-06-22T07:47:34;24.30;99.90
25046;DHT22;13044;49.304;12.840;2023-06-22T07:50:03;24.30;99.90
25046;DHT22;13044;49.304;12.840;2023-06-22T07:52:31;24.50;99.90
25046;DHT22;13044;49.304;12.840;2023-06-22T07:54:58;24.60;99.90
25046;DHT22;13044;49.304;12.840;2023-06-22T07:57:25;24.70;99.90
25046;DHT22;13044;49.304;12.840;2023-06-22T08:00:01;24.70;99.90
25046;DHT22;13044;49.304;12.840;2023-06-22T08:02:30;24.90;99.90
25046;DHT22;13044;49.304;12.840;2023-06-22T08:04:58;25.00;99.90
25046;DHT22;13044;49.304;12.840;2023-06-22T08:07:46;25.10;99.90
25046;DHT22;13044;49.304;12.840;2023-06-22T08:10:14;25.30;99.90
25046;DHT22;13044;49.304;12.840;2023-06-22T08:12:42;25.40;99.90
25046;DHT22;13044;49.304;12.840;2023-06-22T08:15:09;25.50;99.90
25046;DHT22;13044;49.304;12.840;2023-06-22T08:17:37;25.60;99.90
25046;DHT22;13044;49.304;12.840;2023-06-22T08:20:06;25.70;99.90
25046;DHT22;13044;49.304;12.840;2023-06-22T08:22:40;25.80;99.90
25046;DHT22;13044;49.304;12.840;2023-06-22T08:25:07;25.80;99.90
25046;DHT22;13044;49.304;12.840;2023-06-22T08:27:35;25.80;99.90
25046;DHT22;13044;49.304;12.840;2023-06-22T08:30:03;25.90;99.90
25046;DHT22;13044;49.304;12.840;2023-06-22T08:32:30;25.90;99.90
25046;DHT22;13044;49.304;12.840;2023-06-22T08:35:00;26.00;99.90
25046;DHT22;13044;49.304;12.840;2023-06-22T08:37:28;26.00;99.90
25046;DHT22;13044;49.304;12.840;2023-06-22T08:40:07;26.10;99.90
25046;DHT22;13044;49.304;12.840;2023-06-22T08:42:36;26.20;99.90
25046;DHT22;13044;49.304;12.840;2023-06-22T08:45:04;26.30;99.90
25046;DHT22;13044;49.304;12.840;2023-06-22T08:47:31;26.30;99.90
25046;DHT22;13044;49.304;12.840;2023-06-22T08:49:58;26.50;99.90
25046;DHT22;13044;49.304;12.840;2023-06-22T08:52:26;26.60;99.90
25046;DHT22;13044;49.304;12.840;2023-06-22T08:54:52;26.70;99.90
25046;DHT22;13044;49.304;12.840;2023-06-22T08:57:21;26.80;99.90
25046;DHT22;13044;49.304;12.840;2023-06-22T08:59:48;26.90;99.90
25046;DHT22;13044;49.304;12.840;2023-06-22T09:02:14;26.90;99.90
25046;DHT22;13044;49.304;12.840;2023-06-22T09:04:41;27.00;99.90
25046;DHT22;13044;49.304;12.840;2023-06-22T09:07:09;27.20;99.90
25046;DHT22;13044;49.304;12.840;2023-06-22T09:09:36;27.30;99.90
25046;DHT22;13044;49.304;12.840;2023-06-22T09:12:03;27.20;99.90
25046;DHT22;13044;49.304;12.840;2023-06-22T09:14:30;27.30;99.90
25046;DHT22;13044;49.304;12.840;2023-06-22T09:16:57;27.50;99.90
25046;DHT22;13044;49.304;12.840;2023-06-22T09:19:24;27.60;99.90
25046;DHT22;13044;49.304;12.840;2023-06-22T09:21:51;27.70;99.90
25046;DHT22;13044;49.304;12.840;2023-06-22T09:24:18;27.90;99.90
25046;DHT22;13044;49.304;12.840;2023-06-22T09:26:45;28.00;99.90
25046;DHT22;13044;49.304;12.840;2023-06-22T09:29:12;28.00;99.90
25046;DHT22;13044;49.304;12.840;2023-06-22T09:31:39;28.00;99.90
25046;DHT22;13044;49.304;12.840;2023-06-22T09:34:06;28.00;99.90
25046;DHT22;13044;49.304;12.840;2023-06-22T09:36:33;28.10;99.90
25046;DHT22;13044;49.304;12.840;2023-06-22T09:39:00;28.10;99.90
25046;DHT22;13044;49.304;12.840;2023-06-22T09:41:32;28.20;99.90
25046;DHT22;13044;49.304;12.840;2023-06-22T09:43:59;28.30;99.90
25046;DHT22;13044;49.304;12.840;2023-06-22T09:46:26;28.40;99.90
25046;DHT22;13044;49.304;12.840;2023-06-22T09:48:53;28.40;99.90
25046;DHT22;13044;49.304;12.840;2023-06-22T09:51:20;28.50;99.90
25046;DHT22;13044;49.304;12.840;2023-06-22T09:53:48;28.60;99.90
25046;DHT22;13044;49.304;12.840;2023-06-22T09:56:15;28.70;99.90
25046;DHT22;13044;49.304;12.840;2023-06-22T09:58:43;28.70;99.90
25046;DHT22;13044;49.304;12.840;2023-06-22T10:01:11;28.80;99.70
25046;DHT22;13044;49.304;12.840;2023-06-22T10:03:38;28.80;99.60
25046;DHT22;13044;49.304;12.840;2023-06-22T10:06:05;28.90;99.70
25046;DHT22;13044;49.304;12.840;2023-06-22T10:08:32;28.90;99.10
25046;DHT22;13044;49.304;12.840;2023-06-22T10:10:58;29.10;99.20
25046;DHT22;13044;49.304;12.840;2023-06-22T10:13:25;29.10;99.30
25046;DHT22;13044;49.304;12.840;2023-06-22T10:15:52;29.30;99.20
25046;DHT22;13044;49.304;12.840;2023-06-22T10:18:20;29.40;98.00
25046;DHT22;13044;49.304;12.840;2023-06-22T10:20:48;29.50;98.20
25046;DHT22;13044;49.304;12.840;2023-06-22T10:23:18;29.50;98.20
25046;DHT22;13044;49.304;12.840;2023-06-22T10:25:46;29.60;97.50
25046;DHT22;13044;49.304;12.840;2023-06-22T10:28:13;29.60;97.80
25046;DHT22;13044;49.304;12.840;2023-06-22T10:30:40;29.70;97.20
25046;DHT22;13044;49.304;12.840;2023-06-22T10:33:12;29.80;96.60
25046;DHT22;13044;49.304;12.840;2023-06-22T10:35:39;29.80;96.00
25046;DHT22;13044;49.304;12.840;2023-06-22T10:38:06;29.90;96.50
25046;DHT22;13044;49.304;12.840;2023-06-22T10:40:33;30.00;95.80
25046;DHT22;13044;49.304;12.840;2023-06-22T10:43:00;30.10;94.80
25046;DHT22;13044;49.304;12.840;2023-06-22T10:45:27;30.10;94.80
25046;DHT22;13044;49.304;12.840;2023-06-22T10:47:55;30.10;93.90
25046;DHT22;13044;49.304;12.840;2023-06-22T10:50:22;30.20;95.00
25046;DHT22;13044;49.304;12.840;2023-06-22T10:52:51;30.30;93.40
25046;DHT22;13044;49.304;12.840;2023-06-22T10:55:18;30.30;93.90
25046;DHT22;13044;49.304;12.840;2023-06-22T10:57:45;30.40;92.80
25046;DHT22;13044;49.304;12.840;2023-06-22T11:00:14;30.50;93.20
25046;DHT22;13044;49.304;12.840;2023-06-22T11:02:43;30.60;93.70
25046;DHT22;13044;49.304;12.840;2023-06-22T11:05:10;30.60;92.10
25046;DHT22;13044;49.304;12.840;2023-06-22T11:07:40;30.70;91.80
25046;DHT22;13044;49.304;12.840;2023-06-22T11:10:12;30.70;92.00
25046;DHT22;13044;49.304;12.840;2023-06-22T11:12:39;30.60;91.20
25046;DHT22;13044;49.304;12.840;2023-06-22T11:15:07;30.70;92.00
25046;DHT22;13044;49.304;12.840;2023-06-22T11:17:35;30.80;90.80
25046;DHT22;13044;49.304;12.840;2023-06-22T11:20:02;30.70;90.30
25046;DHT22;13044;49.304;12.840;2023-06-22T11:26:35;30.90;89.40
25046;DHT22;13044;49.304;12.840;2023-06-22T11:29:03;31.30;90.90
25046;DHT22;13044;49.304;12.840;2023-06-22T11:31:36;31.40;91.00
25046;DHT22;13044;49.304;12.840;2023-06-22T11:34:03;31.60;91.40
25046;DHT22;13044;49.304;12.840;2023-06-22T11:36:30;31.70;91.40
25046;DHT22;13044;49.304;12.840;2023-06-22T11:38:59;31.90;91.20
25046;DHT22;13044;49.304;12.840;2023-06-22T11:41:26;32.10;90.60
25046;DHT22;13044;49.304;12.840;2023-06-22T11:43:53;32.20;90.00
25046;DHT22;13044;49.304;12.840;2023-06-22T11:46:20;32.20;89.60
25046;DHT22;13044;49.304;12.840;2023-06-22T11:48:47;32.30;90.00
25046;DHT22;13044;49.304;12.840;2023-06-22T11:51:15;32.50;89.70
25046;DHT22;13044;49.304;12.840;2023-06-22T11:53:42;32.60;89.80
25046;DHT22;13044;49.304;12.840;2023-06-22T11:56:09;32.70;88.50
25046;DHT22;13044;49.304;12.840;2023-06-22T11:58:36;32.80;88.70
25046;DHT22;13044;49.304;12.840;2023-06-22T12:01:03;32.80;85.90
25046;DHT22;13044;49.304;12.840;2023-06-22T12:03:31;32.90;86.40
25046;DHT22;13044;49.304;12.840;2023-06-22T12:05:59;32.90;86.70
25046;DHT22;13044;49.304;12.840;2023-06-22T12:08:26;33.00;87.00
25046;DHT22;13044;49.304;12.840;2023-06-22T12:10:53;33.00;86.10
25046;DHT22;13044;49.304;12.840;2023-06-22T12:13:21;33.00;87.30
25046;DHT22;13044;49.304;12.840;2023-06-22T12:15:48;33.20;86.60
25046;DHT22;13044;49.304;12.840;2023-06-22T12:18:15;33.20;86.70
25046;DHT22;13044;49.304;12.840;2023-06-22T12:20:42;33.30;86.30
25046;DHT22;13044;49.304;12.840;2023-06-22T12:23:09;33.40;86.30
25046;DHT22;13044;49.304;12.840;2023-06-22T12:25:36;33.40;84.80
25046;DHT22;13044;49.304;12.840;2023-06-22T12:28:03;33.40;84.70
25046;DHT22;13044;49.304;12.840;2023-06-22T12:30:33;33.40;85.20
25046;DHT22;13044;49.304;12.840;2023-06-22T12:33:00;33.40;84.30
25046;DHT22;13044;49.304;12.840;2023-06-22T12:35:27;33.40;83.00
25046;DHT22;13044;49.304;12.840;2023-06-22T12:37:54;33.40;83.30
25046;DHT22;13044;49.304;12.840;2023-06-22T12:40:21;33.40;83.00
25046;DHT22;13044;49.304;12.840;2023-06-22T12:42:48;33.40;82.90
25046;DHT22;13044;49.304;12.840;2023-06-22T12:45:16;33.40;83.00
25046;DHT22;13044;49.304;12.840;2023-06-22T12:47:43;33.50;81.40
25046;DHT22;13044;49.304;12.840;2023-06-22T12:50:10;33.40;82.90
25046;DHT22;13044;49.304;12.840;2023-06-22T12:52:37;33.50;83.50
25046;DHT22;13044;49.304;12.840;2023-06-22T12:55:07;33.50;83.00
25046;DHT22;13044;49.304;12.840;2023-06-22T12:57:35;33.60;83.30
25046;DHT22;13044;49.304;12.840;2023-06-22T13:00:02;33.60;83.50
25046;DHT22;13044;49.304;12.840;2023-06-22T13:02:31;33.60;83.40
25046;DHT22;13044;49.304;12.840;2023-06-22T13:04:58;33.70;82.60
25046;DHT22;13044;49.304;12.840;2023-06-22T13:07:25;33.70;83.20
25046;DHT22;13044;49.304;12.840;2023-06-22T13:09:52;33.80;82.80
25046;DHT22;13044;49.304;12.840;2023-06-22T13:12:22;33.80;83.00
25046;DHT22;13044;49.304;12.840;2023-06-22T13:14:50;33.90;83.30
25046;DHT22;13044;49.304;12.840;2023-06-22T13:17:18;34.00;82.60
25046;DHT22;13044;49.304;12.840;2023-06-22T13:19:45;34.00;81.50
25046;DHT22;13044;49.304;12.840;2023-06-22T13:22:38;34.00;82.40
25046;DHT22;13044;49.304;12.840;2023-06-22T13:25:10;34.10;82.10
25046;DHT22;13044;49.304;12.840;2023-06-22T13:27:40;34.10;81.30
25046;DHT22;13044;49.304;12.840;2023-06-22T13:30:08;34.10;81.70
25046;DHT22;13044;49.304;12.840;2023-06-22T13:32:39;34.10;80.60
25046;DHT22;13044;49.304;12.840;2023-06-22T13:35:10;34.10;81.60
25046;DHT22;13044;49.304;12.840;2023-06-22T13:37:38;34.10;82.10
25046;DHT22;13044;49.304;12.840;2023-06-22T13:40:06;34.20;82.10
25046;DHT22;13044;49.304;12.840;2023-06-22T13:42:34;34.20;81.50
25046;DHT22;13044;49.304;12.840;2023-06-22T13:45:01;34.30;81.30
25046;DHT22;13044;49.304;12.840;2023-06-22T13:47:29;34.30;80.60
25046;DHT22;13044;49.304;12.840;2023-06-22T13:49:58;34.30;80.60
25046;DHT22;13044;49.304;12.840;2023-06-22T13:52:25;34.40;80.50
25046;DHT22;13044;49.304;12.840;2023-06-22T13:54:52;34.40;80.30
25046;DHT22;13044;49.304;12.840;2023-06-22T13:57:19;34.40;80.30
25046;DHT22;13044;49.304;12.840;2023-06-22T13:59:46;34.50;80.10
25046;DHT22;13044;49.304;12.840;2023-06-22T14:02:13;34.50;79.80
25046;DHT22;13044;49.304;12.840;2023-06-22T14:04:40;34.50;79.80
25046;DHT22;13044;49.304;12.840;2023-06-22T14:07:07;34.50;79.60
25046;DHT22;13044;49.304;12.840;2023-06-22T14:09:34;34.60;77.90
25046;DHT22;13044;49.304;12.840;2023-06-22T14:12:05;34.50;77.90
25046;DHT22;13044;49.304;12.840;2023-06-22T14:14:33;34.50;78.60
25046;DHT22;13044;49.304;12.840;2023-06-22T14:17:00;34.50;78.00
25046;DHT22;13044;49.304;12.840;2023-06-22T14:19:27;34.50;78.10
25046;DHT22;13044;49.304;12.840;2023-06-22T14:21:53;34.60;77.60
25046;DHT22;13044;49.304;12.840;2023-06-22T14:24:20;34.60;77.20
25046;DHT22;13044;49.304;12.840;2023-06-22T14:26:51;34.50;77.00
25046;DHT22;13044;49.304;12.840;2023-06-22T14:29:18;34.50;77.10
25046;DHT22;13044;49.304;12.840;2023-06-22T14:31:46;34.50;77.90
25046;DHT22;13044;49.304;12.840;2023-06-22T14:34:14;34.50;76.90
25046;DHT22;13044;49.304;12.840;2023-06-22T14:36:41;34.50;77.20
25046;DHT22;13044;49.304;12.840;2023-06-22T14:39:09;34.50;76.90
25046;DHT22;13044;49.304;12.840;2023-06-22T14:41:36;34.40;76.40
25046;DHT22;13044;49.304;12.840;2023-06-22T14:44:03;34.30;76.40
25046;DHT22;13044;49.304;12.840;2023-06-22T14:46:30;34.30;77.20
25046;DHT22;13044;49.304;12.840;2023-06-22T14:48:57;34.20;77.00
25046;DHT22;13044;49.304;12.840;2023-06-22T14:51:23;34.10;77.90
25046;DHT22;13044;49.304;12.840;2023-06-22T14:53:50;34.00;77.40
25046;DHT22;13044;49.304;12.840;2023-06-22T14:56:17;33.90;78.00
25046;DHT22;13044;49.304;12.840;2023-06-22T14:58:44;33.80;77.90
25046;DHT22;13044;49.304;12.840;2023-06-22T15:01:13;33.80;78.20
25046;DHT22;13044;49.304;12.840;2023-06-22T15:03:40;33.70;78.50
25046;DHT22;13044;49.304;12.840;2023-06-22T15:06:08;33.70;78.20
25046;DHT22;13044;49.304;12.840;2023-06-22T15:08:39;33.60;78.40
25046;DHT22;13044;49.304;12.840;2023-06-22T15:11:07;33.60;79.20
25046;DHT22;13044;49.304;12.840;2023-06-22T15:13:38;33.60;79.00
25046;DHT22;13044;49.304;12.840;2023-06-22T15:16:06;33.60;79.30
25046;DHT22;13044;49.304;12.840;2023-06-22T15:18:33;33.50;78.80
25046;DHT22;13044;49.304;12.840;2023-06-22T15:21:04;33.50;79.40
25046;DHT22;13044;49.304;12.840;2023-06-22T15:23:32;33.40;79.30
25046;DHT22;13044;49.304;12.840;2023-06-22T15:26:02;33.40;79.70
25046;DHT22;13044;49.304;12.840;2023-06-22T15:28:31;33.40;79.50
25046;DHT22;13044;49.304;12.840;2023-06-22T15:31:04;33.40;79.80